Time;durP1;ratioP1;P1;durP2;ratioP2;P2;SDS_P1;SDS_P2;PMS_P1;PMS_P2;Temp;Humidity;BMP_temperature;BMP_pressure;BME280_temperature;BME280_humidity;BME280_pressure;Samples;Min_cycle;Max_cycle;Signal;HPM_P1;HPM_P2
2022/08/20 00:01:44;;;;;;;0.40;0.40;;;;;;;;;;7364872;19;20495;-72
2022/08/20 00:04:10;;;;;;;0.50;0.50;;;;;;;;;;7368997;19;20135;-70
2022/08/20 00:06:37;;;;;;;0.30;0.30;;;;;;;;;;7370339;19;20117;-71
2022/08/20 00:09:02;;;;;;;0.30;0.30;;;;;;;;;;7371335;19;20453;-69
2022/08/20 00:11:28;;;;;;;0.30;0.30;;;;;;;;;;7365367;19;20140;-70
2022/08/20 00:13:56;;;;;;;0.30;0.30;;;;;;;;;;7380721;19;20759;-69
2022/08/20 00:16:25;;;;;;;0.40;0.40;;;;;;;;;;7372549;19;20129;-71
2022/08/20 00:18:51;;;;;;;1.48;0.95;;;;;;;;;;7386624;19;20121;-69
2022/08/20 00:21:19;;;;;;;1.20;0.77;;;;;;;;;;7370537;19;20121;-73
2022/08/20 00:23:47;;;;;;;0.82;0.82;;;;;;;;;;7370623;19;20653;-69
2022/08/20 00:26:13;;;;;;;0.30;0.30;;;;;;;;;;7381732;19;20128;-69
2022/08/20 00:28:38;;;;;;;0.82;0.82;;;;;;;;;;7388145;19;20573;-71
2022/08/20 00:31:06;;;;;;;0.30;0.30;;;;;;;;;;7382790;19;20137;-70
2022/08/20 00:33:33;;;;;;;0.65;0.65;;;;;;;;;;7387618;19;20152;-72
2022/08/20 00:36:05;;;;;;;1.35;1.33;;;;;;;;;;7379697;19;21026;-75
2022/08/20 00:38:31;;;;;;;0.30;0.30;;;;;;;;;;7372070;19;20148;-75
2022/08/20 00:40:58;;;;;;;0.60;0.60;;;;;;;;;;7376303;19;20132;-72
2022/08/20 00:43:44;;;;;;;0.60;0.60;;;;;;;;;;7374104;19;20156;-72
2022/08/20 00:46:22;;;;;;;0.40;0.40;;;;;;;;;;7370064;19;20137;-72
2022/08/20 00:48:51;;;;;;;0.30;0.30;;;;;;;;;;7384101;19;20155;-72
2022/08/20 00:51:19;;;;;;;0.20;0.20;;;;;;;;;;7372990;19;20117;-71
2022/08/20 00:53:45;;;;;;;0.60;0.60;;;;;;;;;;7383607;19;20149;-73
2022/08/20 00:56:11;;;;;;;0.30;0.30;;;;;;;;;;7377637;19;20543;-71
2022/08/20 00:58:37;;;;;;;0.38;0.38;;;;;;;;;;7379557;19;20128;-70
2022/08/20 01:01:04;;;;;;;0.30;0.30;;;;;;;;;;7371269;19;20230;-72
2022/08/20 01:03:30;;;;;;;0.73;0.73;;;;;;;;;;7373382;19;20145;-69
2022/08/20 01:05:55;;;;;;;0.43;0.43;;;;;;;;;;7374284;19;20121;-69
2022/08/20 01:08:22;;;;;;;0.30;0.30;;;;;;;;;;7380346;19;20579;-69
2022/08/20 01:10:48;;;;;;;0.40;0.40;;;;;;;;;;7384366;19;20495;-69
2022/08/20 01:13:19;;;;;;;0.75;0.75;;;;;;;;;;7368378;19;20149;-72
2022/08/20 01:15:47;;;;;;;0.40;0.40;;;;;;;;;;7374724;19;20740;-72
2022/08/20 01:18:15;;;;;;;0.35;0.35;;;;;;;;;;7382522;19;20139;-69
2022/08/20 01:20:46;;;;;;;2.75;1.10;;;;;;;;;;7383205;19;20185;-70
2022/08/20 01:23:31;;;;;;;0.50;0.50;;;;;;;;;;7381873;19;20148;-69
2022/08/20 01:26:04;;;;;;;2.25;0.77;;;;;;;;;;7373845;19;20148;-69
2022/08/20 01:28:40;;;;;;;0.30;0.30;;;;;;;;;;7374014;19;20510;-69
2022/08/20 01:31:09;;;;;;;0.30;0.30;;;;;;;;;;7378621;19;20477;-70
2022/08/20 01:33:36;;;;;;;1.23;0.85;;;;;;;;;;7382714;19;20148;-69
2022/08/20 01:36:01;;;;;;;0.30;0.30;;;;;;;;;;7379939;19;20131;-69
2022/08/20 01:38:28;;;;;;;0.30;0.30;;;;;;;;;;7381078;19;20145;-70
2022/08/20 01:41:29;;;;;;;0.40;0.40;;;;;;;;;;7382403;19;20125;-69
2022/08/20 01:43:55;;;;;;;0.30;0.30;;;;;;;;;;7371926;19;20197;-69
2022/08/20 01:46:24;;;;;;;0.30;0.30;;;;;;;;;;7372222;19;20149;-70
2022/08/20 01:48:51;;;;;;;0.40;0.40;;;;;;;;;;7373976;19;20487;-70
2022/08/20 01:51:23;;;;;;;0.30;0.30;;;;;;;;;;7382368;19;20667;-69
2022/08/20 01:53:51;;;;;;;0.63;0.63;;;;;;;;;;7373068;19;20149;-69
2022/08/20 01:56:20;;;;;;;0.30;0.30;;;;;;;;;;7379305;19;20769;-69
2022/08/20 01:58:49;;;;;;;0.30;0.30;;;;;;;;;;7384339;19;20249;-69
2022/08/20 02:01:25;;;;;;;0.30;0.30;;;;;;;;;;7372729;19;20133;-70
2022/08/20 02:03:50;;;;;;;0.30;0.30;;;;;;;;;;7369927;19;20222;-69
2022/08/20 02:06:16;;;;;;;0.30;0.30;;;;;;;;;;7370749;19;20566;-69
2022/08/20 02:08:41;;;;;;;0.30;0.30;;;;;;;;;;7384327;19;20770;-72
2022/08/20 02:11:08;;;;;;;0.60;0.57;;;;;;;;;;7387284;19;20984;-70
2022/08/20 02:13:33;;;;;;;0.30;0.30;;;;;;;;;;7378807;19;20153;-69
2022/08/20 02:15:58;;;;;;;0.30;0.30;;;;;;;;;;7381669;19;20137;-69
2022/08/20 02:18:24;;;;;;;0.20;0.20;;;;;;;;;;7374358;19;20141;-71
2022/08/20 02:20:49;;;;;;;0.30;0.30;;;;;;;;;;7388623;19;20527;-69
2022/08/20 02:23:15;;;;;;;0.40;0.40;;;;;;;;;;7380110;19;20626;-69
2022/08/20 02:25:41;;;;;;;0.40;0.40;;;;;;;;;;7374036;19;20133;-70
2022/08/20 02:28:11;;;;;;;0.30;0.30;;;;;;;;;;7381554;19;20554;-72
2022/08/20 02:30:40;;;;;;;0.50;0.50;;;;;;;;;;7382953;19;20161;-70
2022/08/20 02:33:09;;;;;;;0.30;0.30;;;;;;;;;;7375979;19;20159;-69
2022/08/20 02:35:35;;;;;;;0.30;0.30;;;;;;;;;;7378185;19;20129;-71
2022/08/20 02:38:01;;;;;;;0.30;0.30;;;;;;;;;;7369743;19;20153;-73
2022/08/20 02:40:27;;;;;;;0.45;0.45;;;;;;;;;;7372897;19;20121;-71
2022/08/20 02:42:53;;;;;;;0.93;0.93;;;;;;;;;;7370833;19;20157;-71
2022/08/20 02:45:21;;;;;;;0.30;0.30;;;;;;;;;;7369121;19;20495;-74
2022/08/20 02:47:46;;;;;;;0.30;0.30;;;;;;;;;;7373073;19;20174;-71
2022/08/20 02:50:16;;;;;;;0.30;0.30;;;;;;;;;;7374412;19;20497;-71
2022/08/20 02:52:42;;;;;;;0.38;0.38;;;;;;;;;;7370849;19;20216;-72
2022/08/20 02:55:07;;;;;;;0.35;0.35;;;;;;;;;;7371574;19;20579;-70
2022/08/20 02:57:33;;;;;;;0.30;0.30;;;;;;;;;;7378107;19;20128;-71
2022/08/20 02:59:59;;;;;;;0.38;0.38;;;;;;;;;;7372521;19;20125;-71
2022/08/20 03:02:24;;;;;;;0.50;0.50;;;;;;;;;;7373120;19;20152;-71
2022/08/20 03:04:49;;;;;;;0.47;0.47;;;;;;;;;;7367439;19;20128;-71
2022/08/20 03:07:15;;;;;;;0.50;0.50;;;;;;;;;;7377759;19;20145;-69
2022/08/20 03:09:40;;;;;;;0.28;0.28;;;;;;;;;;7371532;19;20132;-71
2022/08/20 03:12:07;;;;;;;0.32;0.32;;;;;;;;;;7378949;19;20209;-72
2022/08/20 03:14:32;;;;;;;0.30;0.30;;;;;;;;;;7378966;19;20125;-72
2022/08/20 03:16:58;;;;;;;0.88;0.88;;;;;;;;;;7374625;19;20120;-73
2022/08/20 03:19:24;;;;;;;0.30;0.30;;;;;;;;;;7371814;19;20176;-69
2022/08/20 03:21:49;;;;;;;0.30;0.30;;;;;;;;;;7371667;19;20124;-74
2022/08/20 03:24:14;;;;;;;0.30;0.30;;;;;;;;;;7368996;19;20125;-73
2022/08/20 03:26:40;;;;;;;0.30;0.30;;;;;;;;;;7375735;19;20184;-71
2022/08/20 03:29:05;;;;;;;0.50;0.50;;;;;;;;;;7377537;19;20480;-70
2022/08/20 03:31:31;;;;;;;0.30;0.30;;;;;;;;;;7384385;19;20128;-72
2022/08/20 03:33:56;;;;;;;0.30;0.30;;;;;;;;;;7369352;19;20149;-71
2022/08/20 03:36:23;;;;;;;0.30;0.30;;;;;;;;;;7372080;19;20145;-69
2022/08/20 03:38:48;;;;;;;0.20;0.20;;;;;;;;;;7373307;19;20117;-71
2022/08/20 03:41:13;;;;;;;1.10;1.05;;;;;;;;;;7377830;19;20518;-72
2022/08/20 03:43:40;;;;;;;0.30;0.30;;;;;;;;;;7365342;19;20145;-74
2022/08/20 03:46:06;;;;;;;0.40;0.40;;;;;;;;;;7361684;19;20116;-71
2022/08/20 03:48:31;;;;;;;0.30;0.30;;;;;;;;;;7367219;19;20554;-74
2022/08/20 03:50:59;;;;;;;0.57;0.57;;;;;;;;;;7378966;19;20139;-71
2022/08/20 03:53:28;;;;;;;0.30;0.30;;;;;;;;;;7373449;19;20144;-71
2022/08/20 03:55:54;;;;;;;0.30;0.30;;;;;;;;;;7374854;19;20625;-71
2022/08/20 03:58:20;;;;;;;0.32;0.32;;;;;;;;;;7375224;19;20587;-72
2022/08/20 04:00:48;;;;;;;0.50;0.50;;;;;;;;;;7383275;19;20148;-72
2022/08/20 04:03:14;;;;;;;0.30;0.30;;;;;;;;;;7377019;19;20144;-73
2022/08/20 04:05:40;;;;;;;0.40;0.40;;;;;;;;;;7375192;19;20485;-71
2022/08/20 04:08:28;;;;;;;0.30;0.30;;;;;;;;;;7382302;19;20137;-70
2022/08/20 04:10:56;;;;;;;0.30;0.30;;;;;;;;;;7370400;19;20807;-70
2022/08/20 04:13:22;;;;;;;0.30;0.30;;;;;;;;;;7374958;19;20141;-71
2022/08/20 04:15:47;;;;;;;0.35;0.35;;;;;;;;;;7373063;19;20128;-71
2022/08/20 04:18:14;;;;;;;0.63;0.63;;;;;;;;;;7382883;19;20157;-71
2022/08/20 04:20:41;;;;;;;0.55;0.55;;;;;;;;;;7380511;19;20610;-71
2022/08/20 04:23:07;;;;;;;0.30;0.30;;;;;;;;;;7378393;19;20152;-71
2022/08/20 04:25:34;;;;;;;0.52;0.52;;;;;;;;;;7378361;19;20125;-74
2022/08/20 04:28:01;;;;;;;0.30;0.30;;;;;;;;;;7381651;19;20116;-72
2022/08/20 04:30:27;;;;;;;0.50;0.50;;;;;;;;;;7374023;19;20152;-71
2022/08/20 04:32:54;;;;;;;0.30;0.30;;;;;;;;;;7380209;19;20636;-72
2022/08/20 04:35:23;;;;;;;0.50;0.50;;;;;;;;;;7383779;19;20481;-71
2022/08/20 04:37:48;;;;;;;0.30;0.30;;;;;;;;;;7381374;19;20129;-71
2022/08/20 04:43:03;;;;;;;0.52;0.52;;;;;;;;;;7373469;19;20208;-71
2022/08/20 04:45:29;;;;;;;0.47;0.47;;;;;;;;;;7381403;19;20144;-73
2022/08/20 04:47:54;;;;;;;0.30;0.30;;;;;;;;;;7366926;19;20531;-72
2022/08/20 16:45:28;;;;;;;0.30;0.30;;;;;;;;;;7380994;19;20199;-73
2022/08/20 16:47:58;;;;;;;0.40;0.40;;;;;;;;;;7389885;19;20132;-74
2022/08/20 16:50:29;;;;;;;0.30;0.30;;;;;;;;;;7391376;19;20129;-73
2022/08/20 16:52:54;;;;;;;0.30;0.30;;;;;;;;;;7389695;19;20151;-74
2022/08/20 16:55:21;;;;;;;0.30;0.30;;;;;;;;;;7382674;19;20128;-73
2022/08/20 16:57:47;;;;;;;0.30;0.30;;;;;;;;;;7366931;19;20188;-73
2022/08/20 17:00:24;;;;;;;0.30;0.30;;;;;;;;;;7383550;19;20132;-74
2022/08/20 17:03:02;;;;;;;0.30;0.30;;;;;;;;;;7388922;19;20156;-73
2022/08/20 17:05:41;;;;;;;0.30;0.30;;;;;;;;;;7383571;19;20160;-71
2022/08/20 17:08:07;;;;;;;0.30;0.30;;;;;;;;;;7383519;19;20152;-70
2022/08/20 17:10:38;;;;;;;0.30;0.30;;;;;;;;;;7384942;19;20168;-70
2022/08/20 17:13:20;;;;;;;0.30;0.30;;;;;;;;;;7383944;19;20189;-71
2022/08/20 17:15:58;;;;;;;0.30;0.30;;;;;;;;;;7381450;19;20472;-71
2022/08/20 17:18:27;;;;;;;0.30;0.30;;;;;;;;;;7386466;19;20140;-74
2022/08/20 17:20:53;;;;;;;0.30;0.30;;;;;;;;;;7387056;19;20501;-74
2022/08/20 17:23:19;;;;;;;0.30;0.30;;;;;;;;;;7386231;19;20187;-71
2022/08/20 17:25:55;;;;;;;0.30;0.30;;;;;;;;;;7386214;19;20132;-72
2022/08/20 17:28:22;;;;;;;0.30;0.30;;;;;;;;;;7378821;19;20128;-71
2022/08/20 17:30:47;;;;;;;0.40;0.40;;;;;;;;;;7387256;19;20128;-71
2022/08/20 17:33:27;;;;;;;0.30;0.30;;;;;;;;;;7387216;19;20145;-71
2022/08/20 17:35:59;;;;;;;0.20;0.20;;;;;;;;;;7375856;19;20132;-72
2022/08/20 17:38:45;;;;;;;0.30;0.30;;;;;;;;;;7390221;19;20141;-73
2022/08/20 17:41:23;;;;;;;0.30;0.30;;;;;;;;;;7379086;19;20140;-71
2022/08/20 17:44:00;;;;;;;0.30;0.30;;;;;;;;;;7377423;19;20152;-71
2022/08/20 17:46:28;;;;;;;0.30;0.30;;;;;;;;;;7388612;19;20150;-71
2022/08/20 17:48:55;;;;;;;0.30;0.30;;;;;;;;;;7390962;19;20593;-73
2022/08/20 17:51:26;;;;;;;0.55;0.55;;;;;;;;;;7390365;19;20477;-73
2022/08/20 17:54:07;;;;;;;0.30;0.30;;;;;;;;;;7378969;19;20145;-71
2022/08/20 17:56:35;;;;;;;0.30;0.30;;;;;;;;;;7388817;19;20485;-73
2022/08/20 17:59:09;;;;;;;0.30;0.30;;;;;;;;;;7386647;19;20133;-74
2022/08/20 18:01:35;;;;;;;0.32;0.32;;;;;;;;;;7389119;19;20155;-72
2022/08/20 18:04:01;;;;;;;0.30;0.30;;;;;;;;;;7386491;19;20485;-72
2022/08/20 18:07:05;;;;;;;0.40;0.40;;;;;;;;;;7361642;19;20180;-72
2022/08/20 18:09:42;;;;;;;0.50;0.50;;;;;;;;;;7352921;19;20176;-72
2022/08/20 18:12:18;;;;;;;0.30;0.30;;;;;;;;;;7382881;19;20137;-71
2022/08/20 18:15:11;;;;;;;0.20;0.20;;;;;;;;;;7346912;19;20133;-71
2022/08/20 18:17:55;;;;;;;0.30;0.30;;;;;;;;;;7362716;19;20156;-71
2022/08/20 18:20:40;;;;;;;0.30;0.30;;;;;;;;;;7367280;19;20141;-71
2022/08/20 18:23:21;;;;;;;0.30;0.30;;;;;;;;;;7386713;19;20144;-72
2022/08/20 18:25:54;;;;;;;0.30;0.30;;;;;;;;;;7378875;19;20141;-71
2022/08/20 18:28:23;;;;;;;0.30;0.30;;;;;;;;;;7381011;19;20145;-71
2022/08/20 18:30:51;;;;;;;0.45;0.45;;;;;;;;;;7342159;19;20586;-71
2022/08/20 18:33:31;;;;;;;0.30;0.30;;;;;;;;;;7379280;19;20163;-71
2022/08/20 18:36:07;;;;;;;0.20;0.20;;;;;;;;;;7385818;19;20133;-71
2022/08/20 18:38:37;;;;;;;0.30;0.30;;;;;;;;;;7381451;19;20133;-72
2022/08/20 18:41:06;;;;;;;0.30;0.30;;;;;;;;;;7374003;19;20208;-74
2022/08/20 18:43:31;;;;;;;0.30;0.30;;;;;;;;;;7370328;19;20182;-74
2022/08/20 18:46:20;;;;;;;0.30;0.30;;;;;;;;;;7374369;19;20120;-70
2022/08/20 18:48:50;;;;;;;0.30;0.30;;;;;;;;;;7370617;19;20125;-71
2022/08/20 18:51:19;;;;;;;0.30;0.30;;;;;;;;;;7376232;19;20208;-71
2022/08/20 18:53:47;;;;;;;0.30;0.30;;;;;;;;;;7375308;19;20194;-72
2022/08/20 18:56:13;;;;;;;0.30;0.30;;;;;;;;;;7372475;19;20174;-72
2022/08/20 18:58:56;;;;;;;0.30;0.30;;;;;;;;;;7377476;19;20133;-73
2022/08/20 19:01:22;;;;;;;0.30;0.30;;;;;;;;;;7367326;19;20132;-73
2022/08/20 19:03:51;;;;;;;0.30;0.30;;;;;;;;;;7362599;19;20149;-71
2022/08/20 19:06:23;;;;;;;0.30;0.30;;;;;;;;;;7375112;19;20144;-71
2022/08/20 19:08:52;;;;;;;0.30;0.30;;;;;;;;;;7377828;19;20140;-70
2022/08/20 19:11:51;;;;;;;0.30;0.30;;;;;;;;;;7363455;19;20124;-71
2022/08/20 19:14:41;;;;;;;0.30;0.30;;;;;;;;;;7366370;19;20986;-72
2022/08/20 19:17:15;;;;;;;0.30;0.30;;;;;;;;;;7374529;19;20144;-71
2022/08/20 19:19:40;;;;;;;0.30;0.30;;;;;;;;;;7375936;19;20148;-73
2022/08/20 19:22:06;;;;;;;0.30;0.30;;;;;;;;;;7372124;19;20686;-72
2022/08/20 19:24:34;;;;;;;0.30;0.30;;;;;;;;;;7363580;19;20125;-73
2022/08/20 19:27:04;;;;;;;0.30;0.30;;;;;;;;;;7377348;19;20133;-71
2022/08/20 19:29:36;;;;;;;0.20;0.20;;;;;;;;;;7369400;19;20203;-73
2022/08/20 19:32:08;;;;;;;0.30;0.30;;;;;;;;;;7371663;19;20540;-73
2022/08/20 19:34:34;;;;;;;0.30;0.30;;;;;;;;;;7352280;19;20133;-71
2022/08/20 19:37:03;;;;;;;0.30;0.30;;;;;;;;;;7365273;19;20146;-71
2022/08/20 19:39:29;;;;;;;0.30;0.30;;;;;;;;;;7355504;19;20173;-72
2022/08/20 19:41:59;;;;;;;0.30;0.30;;;;;;;;;;7361197;19;20137;-73
2022/08/20 19:44:55;;;;;;;0.40;0.40;;;;;;;;;;7366791;19;20140;-72
2022/08/20 19:47:36;;;;;;;0.20;0.20;;;;;;;;;;7359832;19;20259;-71
2022/08/20 19:50:13;;;;;;;0.30;0.30;;;;;;;;;;7367098;19;20117;-71
2022/08/20 19:52:44;;;;;;;0.30;0.30;;;;;;;;;;7381335;19;20574;-71
2022/08/20 19:55:31;;;;;;;0.30;0.30;;;;;;;;;;7385060;19;20621;-71
2022/08/20 19:58:00;;;;;;;0.30;0.30;;;;;;;;;;7381519;19;20133;-72
2022/08/20 20:00:28;;;;;;;0.50;0.50;;;;;;;;;;7377417;19;20625;-72
2022/08/20 20:02:54;;;;;;;0.20;0.20;;;;;;;;;;7369827;19;20159;-72
2022/08/20 20:05:20;;;;;;;0.30;0.30;;;;;;;;;;7379167;19;20117;-72
2022/08/20 20:07:51;;;;;;;0.30;0.30;;;;;;;;;;7373659;19;20990;-72
2022/08/20 20:10:32;;;;;;;0.30;0.30;;;;;;;;;;7372530;19;21392;-71
2022/08/20 20:13:05;;;;;;;0.32;0.32;;;;;;;;;;7378330;19;20160;-71
2022/08/20 20:15:31;;;;;;;0.30;0.30;;;;;;;;;;7368492;19;20129;-71
2022/08/20 20:17:58;;;;;;;0.30;0.30;;;;;;;;;;7381141;19;20586;-71
2022/08/20 20:20:30;;;;;;;0.95;0.95;;;;;;;;;;7385432;19;20125;-71
2022/08/20 20:23:13;;;;;;;0.20;0.20;;;;;;;;;;7380416;19;21210;-71
2022/08/20 20:25:44;;;;;;;0.30;0.30;;;;;;;;;;7382394;19;20133;-72
2022/08/20 20:28:13;;;;;;;0.30;0.30;;;;;;;;;;7380717;19;20136;-71
2022/08/20 20:30:39;;;;;;;0.50;0.50;;;;;;;;;;7381299;19;20141;-71
2022/08/20 20:33:16;;;;;;;0.30;0.30;;;;;;;;;;7381963;19;20197;-71
2022/08/20 20:35:45;;;;;;;0.30;0.30;;;;;;;;;;7380951;19;20168;-72
2022/08/20 20:38:23;;;;;;;0.30;0.30;;;;;;;;;;7389439;19;20144;-72
2022/08/20 20:40:57;;;;;;;0.30;0.30;;;;;;;;;;7395013;19;20133;-72
2022/08/20 20:43:34;;;;;;;0.30;0.30;;;;;;;;;;7381432;19;20151;-72
2022/08/20 20:46:06;;;;;;;0.73;0.73;;;;;;;;;;7393994;19;20137;-71
2022/08/20 20:48:50;;;;;;;0.30;0.30;;;;;;;;;;7391470;19;20137;-71
2022/08/20 20:51:31;;;;;;;0.30;0.30;;;;;;;;;;7392054;19;20139;-71
2022/08/20 20:54:05;;;;;;;0.30;0.30;;;;;;;;;;7390741;19;20167;-71
2022/08/20 20:56:37;;;;;;;0.30;0.30;;;;;;;;;;7392784;19;20186;-72
2022/08/20 20:59:05;;;;;;;0.30;0.30;;;;;;;;;;7388620;19;20133;-71
2022/08/20 21:01:33;;;;;;;0.30;0.30;;;;;;;;;;7390356;19;20121;-71
2022/08/20 21:03:58;;;;;;;0.30;0.30;;;;;;;;;;7389468;19;20145;-71
2022/08/20 21:06:26;;;;;;;0.40;0.40;;;;;;;;;;7393982;19;20159;-71
2022/08/20 21:08:52;;;;;;;0.30;0.30;;;;;;;;;;7388263;19;20133;-72
2022/08/20 21:11:17;;;;;;;0.30;0.30;;;;;;;;;;7390564;19;20153;-73
2022/08/20 21:13:42;;;;;;;0.30;0.30;;;;;;;;;;7375723;19;20522;-72
2022/08/20 21:16:08;;;;;;;0.30;0.30;;;;;;;;;;7389839;19;20650;-71
2022/08/20 21:18:35;;;;;;;0.20;0.20;;;;;;;;;;7391724;19;20137;-72
2022/08/20 21:21:02;;;;;;;0.30;0.30;;;;;;;;;;7391274;19;20550;-71
2022/08/20 21:23:28;;;;;;;0.30;0.30;;;;;;;;;;7390675;19;20631;-71
2022/08/20 21:25:53;;;;;;;0.60;0.60;;;;;;;;;;7391553;19;20229;-71
2022/08/20 21:28:18;;;;;;;0.32;0.32;;;;;;;;;;7388544;19;20834;-72
2022/08/20 21:30:44;;;;;;;0.30;0.30;;;;;;;;;;7383523;19;20217;-72
2022/08/20 21:33:09;;;;;;;0.30;0.30;;;;;;;;;;7389004;19;20229;-71
2022/08/20 21:35:34;;;;;;;0.30;0.30;;;;;;;;;;7390509;19;20117;-71
2022/08/20 21:38:00;;;;;;;0.30;0.30;;;;;;;;;;7393694;19;20555;-72
2022/08/20 21:40:25;;;;;;;0.30;0.30;;;;;;;;;;7392131;19;20136;-72
2022/08/20 21:42:50;;;;;;;0.30;0.30;;;;;;;;;;7391225;19;20521;-71
2022/08/20 21:45:16;;;;;;;0.30;0.30;;;;;;;;;;7390721;19;20140;-72
2022/08/20 21:47:42;;;;;;;0.30;0.30;;;;;;;;;;7390389;19;20382;-71
2022/08/20 21:50:08;;;;;;;0.30;0.30;;;;;;;;;;7390780;19;20143;-71
2022/08/20 21:52:34;;;;;;;0.30;0.30;;;;;;;;;;7389401;19;20220;-71
2022/08/20 21:55:00;;;;;;;0.30;0.30;;;;;;;;;;7391432;19;20137;-71
2022/08/20 21:57:28;;;;;;;0.30;0.30;;;;;;;;;;7389485;19;20129;-72
2022/08/20 21:59:54;;;;;;;0.30;0.30;;;;;;;;;;7390601;19;20639;-72
2022/08/20 22:02:20;;;;;;;0.30;0.30;;;;;;;;;;7389115;19;20145;-71
2022/08/20 22:04:46;;;;;;;0.30;0.30;;;;;;;;;;7388664;19;20140;-71
2022/08/20 22:07:11;;;;;;;0.30;0.30;;;;;;;;;;7392686;19;20150;-71
2022/08/20 22:09:37;;;;;;;0.30;0.30;;;;;;;;;;7390429;19;20577;-72
2022/08/20 22:12:05;;;;;;;0.30;0.30;;;;;;;;;;7390356;19;20149;-71
2022/08/20 22:14:30;;;;;;;0.20;0.20;;;;;;;;;;7389685;19;20200;-71
2022/08/20 22:16:55;;;;;;;0.30;0.30;;;;;;;;;;7392488;19;20472;-72
2022/08/20 22:19:21;;;;;;;0.30;0.30;;;;;;;;;;7390677;19;20281;-71
2022/08/20 22:21:48;;;;;;;0.30;0.30;;;;;;;;;;7389685;19;20236;-71
2022/08/20 22:24:13;;;;;;;0.30;0.30;;;;;;;;;;7389624;19;20156;-71
2022/08/20 22:26:40;;;;;;;0.30;0.30;;;;;;;;;;7390022;19;20129;-71
2022/08/20 22:29:08;;;;;;;0.30;0.30;;;;;;;;;;7389365;19;20121;-72
2022/08/20 22:31:35;;;;;;;0.30;0.30;;;;;;;;;;7389491;19;20148;-71
2022/08/20 22:34:01;;;;;;;0.30;0.30;;;;;;;;;;7385946;19;20168;-71
2022/08/20 22:36:26;;;;;;;0.30;0.30;;;;;;;;;;7389974;19;20136;-71
2022/08/20 22:38:53;;;;;;;0.30;0.30;;;;;;;;;;7389055;19;20479;-72
2022/08/20 22:41:19;;;;;;;0.82;0.82;;;;;;;;;;7389128;19;20129;-71
2022/08/20 22:43:44;;;;;;;0.85;0.77;;;;;;;;;;7386559;19;20182;-72
2022/08/20 22:46:10;;;;;;;0.30;0.30;;;;;;;;;;7391196;19;20133;-71
2022/08/20 22:48:35;;;;;;;0.38;0.38;;;;;;;;;;7388704;19;20117;-71
2022/08/20 22:51:01;;;;;;;0.30;0.30;;;;;;;;;;7388235;19;20611;-71
2022/08/20 22:53:27;;;;;;;0.30;0.30;;;;;;;;;;7388209;19;20144;-71
2022/08/20 22:55:53;;;;;;;0.30;0.30;;;;;;;;;;7386913;19;20136;-71
2022/08/20 22:58:19;;;;;;;0.30;0.30;;;;;;;;;;7388475;19;20158;-72
2022/08/20 23:00:46;;;;;;;0.30;0.30;;;;;;;;;;7387322;19;20839;-71
2022/08/20 23:03:13;;;;;;;0.30;0.30;;;;;;;;;;7386960;19;20148;-71
2022/08/20 23:05:38;;;;;;;0.30;0.30;;;;;;;;;;7387818;19;20137;-71
2022/08/20 23:08:05;;;;;;;0.30;0.30;;;;;;;;;;7389019;19;20587;-71
2022/08/20 23:10:35;;;;;;;0.30;0.30;;;;;;;;;;7388516;19;20658;-71
2022/08/20 23:13:01;;;;;;;0.30;0.30;;;;;;;;;;7389134;19;20145;-71
2022/08/20 23:15:26;;;;;;;0.30;0.30;;;;;;;;;;7387297;19;20731;-71
2022/08/20 23:17:56;;;;;;;0.30;0.30;;;;;;;;;;7388274;19;20121;-71
2022/08/20 23:20:21;;;;;;;0.30;0.30;;;;;;;;;;7387482;19;20121;-72
2022/08/20 23:22:47;;;;;;;0.30;0.30;;;;;;;;;;7389062;19;20530;-71
2022/08/20 23:25:12;;;;;;;0.30;0.30;;;;;;;;;;7388320;19;20125;-72
2022/08/20 23:27:46;;;;;;;0.73;0.73;;;;;;;;;;7388658;19;20200;-72
2022/08/20 23:30:12;;;;;;;0.30;0.30;;;;;;;;;;7386228;19;20230;-71
2022/08/20 23:32:38;;;;;;;0.20;0.20;;;;;;;;;;7385708;19;20265;-71
2022/08/20 23:35:05;;;;;;;0.60;0.60;;;;;;;;;;7386961;19;20121;-71
2022/08/20 23:37:32;;;;;;;0.40;0.40;;;;;;;;;;7386457;19;20212;-71
2022/08/20 23:39:57;;;;;;;0.43;0.43;;;;;;;;;;7388076;19;20148;-71
2022/08/20 23:42:23;;;;;;;0.30;0.30;;;;;;;;;;7387702;19;20243;-71
2022/08/20 23:44:48;;;;;;;0.40;0.40;;;;;;;;;;7387163;19;20167;-71
2022/08/20 23:47:19;;;;;;;0.30;0.30;;;;;;;;;;7386651;19;20127;-71
2022/08/20 23:49:45;;;;;;;0.30;0.30;;;;;;;;;;7386748;19;20128;-71
2022/08/20 23:52:10;;;;;;;0.30;0.30;;;;;;;;;;7386907;19;20144;-71
2022/08/20 23:54:35;;;;;;;0.20;0.20;;;;;;;;;;7387467;19;20128;-72
2022/08/20 23:57:01;;;;;;;0.30;0.30;;;;;;;;;;7381973;19;20117;-72
2022/08/20 23:59:26;;;;;;;0.30;0.30;;;;;;;;;;7383866;19;20129;-72
